createdAt,value
2019-02-15T00:00:40.129Z,16.50
2019-02-15T00:03:09.498Z,14.90
2019-02-15T00:05:38.925Z,14.80
2019-02-15T00:08:08.374Z,14.33
2019-02-15T00:10:37.789Z,15.33
2019-02-15T00:13:13.324Z,14.60
2019-02-15T00:15:38.354Z,14.97
2019-02-15T00:18:26.691Z,15.90
2019-02-15T00:21:14.980Z,14.70
2019-02-15T00:23:45.603Z,16.37
2019-02-15T00:26:16.516Z,16.13
2019-02-15T00:28:46.103Z,15.53
2019-02-15T00:31:18.685Z,16.53
2019-02-15T00:33:48.143Z,16.77
2019-02-15T00:36:17.616Z,16.07
2019-02-15T00:38:47.059Z,16.10
2019-02-15T00:41:16.429Z,17.50
2019-02-15T00:43:45.895Z,17.47
2019-02-15T00:46:49.354Z,19.40
2019-02-15T00:49:34.439Z,19.13
2019-02-15T00:52:11.474Z,20.27
2019-02-15T00:54:48.868Z,18.57
2019-02-15T00:57:26.788Z,17.63
2019-02-15T01:00:21.272Z,18.00
2019-02-15T01:03:01.836Z,16.40
2019-02-15T01:05:52.892Z,18.07
2019-02-15T01:08:33.449Z,19.30
2019-02-15T01:11:21.825Z,18.60
2019-02-15T01:13:51.283Z,16.83
2019-02-15T01:16:20.704Z,18.67
2019-02-15T01:18:50.073Z,17.37
2019-02-15T01:21:19.464Z,17.47
2019-02-15T01:23:48.829Z,15.27
2019-02-15T01:26:40.499Z,15.47
2019-02-15T01:29:27.404Z,14.67
2019-02-15T01:32:34.032Z,14.50
2019-02-15T01:35:15.226Z,14.87
2019-02-15T01:38:06.385Z,15.47
2019-02-15T01:40:50.184Z,15.30
2019-02-15T01:43:39.812Z,15.30
2019-02-15T01:46:11.016Z,15.03
2019-02-15T01:48:40.502Z,15.37
2019-02-15T01:51:09.960Z,15.13
2019-02-15T01:53:39.409Z,15.80
2019-02-15T01:56:08.920Z,16.57
2019-02-15T01:58:38.412Z,15.93
2019-02-15T02:01:07.946Z,17.67
2019-02-15T02:03:37.379Z,17.30
2019-02-15T02:06:06.847Z,16.43
2019-02-15T02:08:36.273Z,16.10
2019-02-15T02:11:05.638Z,15.33
2019-02-15T02:13:35.156Z,15.17
2019-02-15T02:16:04.567Z,13.77
2019-02-15T02:18:33.955Z,13.43
2019-02-15T02:21:03.414Z,13.77
2019-02-15T02:23:32.937Z,12.67
2019-02-15T02:26:03.631Z,12.37
2019-02-15T02:28:32.993Z,12.20
2019-02-15T02:31:02.415Z,11.73
2019-02-15T02:33:31.864Z,11.47
2019-02-15T02:36:01.318Z,12.10
2019-02-15T02:38:30.731Z,12.57
2019-02-15T02:41:00.093Z,23.43
2019-02-15T02:43:29.591Z,20.37
2019-02-15T02:45:59.045Z,16.63
2019-02-15T02:48:28.482Z,17.57
2019-02-15T02:50:57.880Z,13.43
2019-02-15T02:53:27.298Z,14.20
2019-02-15T02:55:56.739Z,14.20
2019-02-15T02:58:26.158Z,14.17
2019-02-15T03:00:55.518Z,14.03
2019-02-15T03:03:24.966Z,12.67
2019-02-15T03:05:54.653Z,13.70
2019-02-15T03:08:24.026Z,15.03
2019-02-15T03:10:53.390Z,13.97
2019-02-15T03:13:22.845Z,14.40
2019-02-15T03:15:52.410Z,15.77
2019-02-15T03:18:21.789Z,16.00
2019-02-15T03:20:51.231Z,15.70
2019-02-15T03:23:20.691Z,15.50
2019-02-15T03:25:50.149Z,16.73
2019-02-15T03:28:19.627Z,15.97
2019-02-15T03:30:49.104Z,14.20
2019-02-15T03:33:18.616Z,15.10
2019-02-15T03:36:00.331Z,15.37
2019-02-15T03:38:51.600Z,15.07
2019-02-15T03:41:31.886Z,14.77
2019-02-15T03:44:01.289Z,14.27
2019-02-15T03:46:30.733Z,14.43
2019-02-15T03:49:00.269Z,14.27
2019-02-15T03:51:29.670Z,15.03
2019-02-15T03:53:59.197Z,13.27
2019-02-15T03:56:28.603Z,12.10
2019-02-15T03:58:58.047Z,11.20
2019-02-15T04:01:27.502Z,10.63
2019-02-15T04:03:57.006Z,11.40
2019-02-15T04:06:26.443Z,10.87
2019-02-15T04:08:55.886Z,10.90
2019-02-15T04:11:25.336Z,11.33
2019-02-15T04:13:54.765Z,11.80
2019-02-15T04:16:24.142Z,11.97
2019-02-15T04:18:53.615Z,13.00
2019-02-15T04:21:22.950Z,14.10
2019-02-15T04:23:52.274Z,14.27
2019-02-15T04:26:21.683Z,12.40
2019-02-15T04:28:51.062Z,12.03
2019-02-15T04:31:20.404Z,12.00
2019-02-15T04:33:49.873Z,11.60
2019-02-15T04:36:19.265Z,12.03
2019-02-15T04:38:48.656Z,10.87
2019-02-15T04:41:18.040Z,12.10
2019-02-15T04:43:47.418Z,12.33
2019-02-15T04:46:16.828Z,11.50
2019-02-15T04:48:46.305Z,11.53
2019-02-15T04:51:15.764Z,11.30
2019-02-15T04:53:45.175Z,9.63
2019-02-15T04:56:14.632Z,9.20
2019-02-15T04:58:44.050Z,9.07
2019-02-15T05:01:13.359Z,9.27
2019-02-15T05:03:42.823Z,8.90
2019-02-15T05:06:12.273Z,10.17
2019-02-15T05:08:41.723Z,8.83
2019-02-15T05:11:11.118Z,10.10
2019-02-15T05:13:40.623Z,11.00
2019-02-15T05:16:10.087Z,11.20
2019-02-15T05:18:39.527Z,11.10
2019-02-15T05:21:08.999Z,13.50
2019-02-15T05:23:38.467Z,15.80
2019-02-15T05:26:07.935Z,18.47
2019-02-15T05:28:37.423Z,16.90
2019-02-15T05:31:06.863Z,12.93
2019-02-15T05:33:36.227Z,10.60
2019-02-15T05:36:06.696Z,10.10
2019-02-15T05:38:36.147Z,10.77
2019-02-15T05:41:05.679Z,10.40
2019-02-15T05:43:35.077Z,9.80
2019-02-15T05:46:04.775Z,9.60
2019-02-15T05:48:34.171Z,9.40
2019-02-15T05:51:03.548Z,8.40
2019-02-15T05:53:32.984Z,8.23
2019-02-15T05:56:02.388Z,8.27
2019-02-15T05:58:31.743Z,8.30
2019-02-15T06:01:01.215Z,9.27
2019-02-15T06:03:30.581Z,9.70
2019-02-15T06:05:59.964Z,7.90
2019-02-15T06:08:31.285Z,7.77
2019-02-15T06:11:07.508Z,8.30
2019-02-15T06:13:31.672Z,10.60
2019-02-15T06:16:01.102Z,11.20
2019-02-15T06:18:30.540Z,11.03
2019-02-15T06:20:59.960Z,11.90
2019-02-15T06:23:29.359Z,13.37
2019-02-15T06:25:58.808Z,13.20
2019-02-15T06:28:28.288Z,14.40
2019-02-15T06:30:57.735Z,15.00
2019-02-15T06:33:27.196Z,13.63
2019-02-15T06:35:56.572Z,10.73
2019-02-15T06:38:34.622Z,9.87
2019-02-15T06:40:57.105Z,9.77
2019-02-15T06:43:26.590Z,9.03
2019-02-15T06:45:56.026Z,9.43
2019-02-15T06:48:25.484Z,9.73
2019-02-15T06:50:54.934Z,8.67
2019-02-15T06:53:24.586Z,10.20
2019-02-15T06:55:54.019Z,10.40
2019-02-15T06:58:23.411Z,11.10
2019-02-15T07:01:17.637Z,11.47
2019-02-15T07:04:08.876Z,12.37
2019-02-15T07:06:38.341Z,13.37
2019-02-15T07:09:07.869Z,13.67
2019-02-15T07:11:37.260Z,15.40
2019-02-15T07:14:06.707Z,16.30
2019-02-15T07:16:36.165Z,14.03
2019-02-15T07:19:05.506Z,13.03
2019-02-15T07:21:34.866Z,11.67
2019-02-15T07:24:04.336Z,11.03
2019-02-15T07:26:33.677Z,10.77
2019-02-15T07:29:03.075Z,11.13
2019-02-15T07:31:32.608Z,12.53
2019-02-15T07:34:02.004Z,12.13
2019-02-15T07:36:31.375Z,11.33
2019-02-15T07:39:00.844Z,12.13
2019-02-15T07:41:30.291Z,12.47
2019-02-15T07:43:59.746Z,10.97
2019-02-15T07:46:29.120Z,11.13
2019-02-15T07:48:58.525Z,10.07
2019-02-15T07:51:27.953Z,8.30
2019-02-15T07:53:57.347Z,8.53
2019-02-15T07:56:26.736Z,8.00
2019-02-15T07:58:56.137Z,9.17
2019-02-15T08:01:25.578Z,8.90
2019-02-15T08:03:55.015Z,7.90
2019-02-15T08:06:24.369Z,8.80
2019-02-15T08:08:53.720Z,9.23
2019-02-15T08:11:23.119Z,9.27
2019-02-15T08:13:52.617Z,9.77
2019-02-15T08:16:21.993Z,9.80
2019-02-15T08:18:51.416Z,10.67
2019-02-15T08:21:20.890Z,12.20
2019-02-15T08:23:50.287Z,10.90
2019-02-15T08:26:19.635Z,11.37
2019-02-15T08:28:48.998Z,11.17
2019-02-15T08:31:18.475Z,11.30
2019-02-15T08:33:48.076Z,10.90
2019-02-15T08:36:17.499Z,48.67
2019-02-15T08:38:46.916Z,12.70
2019-02-15T08:41:16.404Z,11.23
2019-02-15T08:43:45.845Z,11.70
2019-02-15T08:46:15.187Z,12.93
2019-02-15T08:48:46.415Z,11.23
2019-02-15T08:51:15.744Z,10.43
2019-02-15T08:53:45.155Z,13.20
2019-02-15T08:56:14.566Z,18.50
2019-02-15T08:58:43.989Z,61.10
2019-02-15T09:01:13.362Z,18.40
2019-02-15T09:03:42.833Z,38.60
2019-02-15T09:06:12.155Z,23.13
2019-02-15T09:08:41.528Z,24.17
2019-02-15T09:11:11.026Z,25.50
2019-02-15T09:13:40.493Z,19.77
2019-02-15T09:16:10.690Z,19.47
2019-02-15T09:18:40.427Z,21.93
2019-02-15T09:21:09.807Z,18.67
2019-02-15T09:23:39.234Z,16.40
2019-02-15T09:26:17.785Z,15.67
2019-02-15T09:28:58.780Z,15.03
2019-02-15T09:31:28.164Z,14.70
2019-02-15T09:33:58.631Z,18.60
2019-02-15T09:36:28.139Z,23.60
2019-02-15T09:38:57.641Z,26.47
2019-02-15T09:41:27.094Z,34.07
2019-02-15T09:43:56.558Z,34.47
2019-02-15T09:46:25.969Z,34.93
2019-02-15T09:48:55.402Z,35.73
2019-02-15T09:51:24.876Z,35.60
2019-02-15T09:53:54.259Z,35.07
2019-02-15T09:56:23.703Z,34.13
2019-02-15T09:58:53.144Z,32.10
2019-02-15T10:01:22.610Z,33.80
2019-02-15T10:03:52.056Z,33.63
2019-02-15T10:06:21.480Z,30.10
2019-02-15T10:08:50.905Z,28.20
2019-02-15T10:11:21.375Z,22.27
2019-02-15T10:13:50.882Z,28.63
2019-02-15T10:16:28.266Z,27.97
2019-02-15T10:18:51.338Z,31.40
2019-02-15T10:21:20.836Z,25.83
2019-02-15T10:23:50.274Z,27.63
2019-02-15T10:26:19.740Z,31.47
2019-02-15T10:28:49.250Z,28.83
2019-02-15T10:31:18.992Z,31.13
2019-02-15T10:33:48.360Z,33.93
2019-02-15T10:36:18.991Z,33.83
2019-02-15T10:38:48.707Z,36.80
2019-02-15T10:41:18.152Z,35.93
2019-02-15T10:43:47.583Z,37.47
2019-02-15T10:46:17.047Z,40.23
2019-02-15T10:48:46.400Z,41.87
2019-02-15T10:51:15.772Z,40.93
2019-02-15T10:53:45.254Z,39.97
2019-02-15T10:56:14.599Z,40.43
2019-02-15T10:58:44.001Z,41.17
2019-02-15T11:01:13.454Z,38.37
2019-02-15T11:03:42.817Z,40.27
2019-02-15T11:06:12.559Z,38.33
2019-02-15T11:08:42.034Z,39.10
2019-02-15T11:11:11.526Z,39.40
2019-02-15T11:13:40.995Z,46.17
2019-02-15T11:16:10.498Z,42.13
2019-02-15T11:18:39.982Z,42.00
2019-02-15T11:21:09.391Z,44.37
2019-02-15T11:23:38.808Z,42.37
2019-02-15T11:26:08.254Z,41.50
2019-02-15T11:28:37.685Z,41.83
2019-02-15T11:31:07.116Z,43.60
2019-02-15T11:33:36.471Z,42.23
2019-02-15T11:36:05.826Z,43.27
2019-02-15T11:38:35.427Z,41.83
2019-02-15T11:41:10.906Z,43.90
2019-02-15T11:43:36.056Z,46.10
2019-02-15T11:46:05.510Z,45.07
2019-02-15T11:48:34.923Z,45.87
2019-02-15T11:51:04.988Z,44.53
2019-02-15T11:53:34.415Z,44.00
2019-02-15T11:56:03.821Z,45.13
2019-02-15T11:58:33.274Z,44.43
2019-02-15T12:01:03.680Z,42.90
2019-02-15T12:03:33.128Z,45.17
2019-02-15T12:06:03.863Z,43.43
2019-02-15T12:08:33.683Z,46.47
2019-02-15T12:11:03.684Z,45.17
2019-02-15T12:13:33.532Z,48.47
2019-02-15T12:16:02.953Z,44.93
2019-02-15T12:18:32.432Z,45.20
2019-02-15T12:21:01.828Z,44.50
2019-02-15T12:23:31.259Z,47.97
2019-02-15T12:26:00.744Z,45.97
2019-02-15T12:28:30.748Z,43.23
2019-02-15T12:31:00.449Z,46.80
2019-02-15T12:33:29.843Z,43.70
2019-02-15T12:35:59.226Z,44.27
2019-02-15T12:38:28.551Z,44.00
2019-02-15T12:40:57.987Z,42.73
2019-02-15T12:43:27.451Z,44.73
2019-02-15T12:45:57.002Z,45.90
2019-02-15T12:48:26.410Z,47.70
2019-02-15T12:50:55.964Z,45.23
2019-02-15T12:53:25.544Z,43.97
2019-02-15T12:55:55.067Z,44.43
2019-02-15T12:58:24.554Z,49.47
2019-02-15T13:00:54.011Z,47.50
2019-02-15T13:03:23.441Z,47.07
2019-02-15T13:05:52.931Z,44.73
2019-02-15T13:08:22.326Z,45.17
2019-02-15T13:10:51.732Z,45.07
2019-02-15T13:13:21.230Z,43.57
2019-02-15T13:15:50.683Z,46.07
2019-02-15T13:18:20.153Z,48.23
2019-02-15T13:20:49.533Z,47.27
2019-02-15T13:23:19.116Z,47.60
2019-02-15T13:25:48.600Z,47.87
2019-02-15T13:28:18.031Z,46.27
2019-02-15T13:30:47.542Z,47.47
2019-02-15T13:33:16.925Z,48.23
2019-02-15T13:35:46.375Z,44.23
2019-02-15T13:38:15.864Z,45.37
2019-02-15T13:40:45.208Z,44.23
2019-02-15T13:43:14.692Z,45.17
2019-02-15T13:45:44.173Z,43.60
2019-02-15T13:48:13.678Z,42.97
2019-02-15T13:50:43.187Z,46.60
2019-02-15T13:53:12.633Z,51.77
2019-02-15T13:55:42.023Z,45.83
2019-02-15T13:58:11.503Z,49.20
2019-02-15T14:00:40.949Z,44.43
2019-02-15T14:03:10.327Z,48.53
2019-02-15T14:05:39.977Z,45.90
2019-02-15T14:08:09.328Z,51.07
2019-02-15T14:10:38.748Z,46.37
2019-02-15T14:13:08.204Z,48.27
2019-02-15T14:15:37.809Z,47.23
2019-02-15T14:18:07.272Z,49.23
2019-02-15T14:20:36.735Z,50.20
2019-02-15T14:23:06.115Z,47.13
2019-02-15T14:25:35.559Z,46.57
2019-02-15T14:28:05.119Z,49.20
2019-02-15T14:30:34.581Z,50.07
2019-02-15T14:33:04.029Z,49.50
2019-02-15T14:35:33.563Z,44.23
2019-02-15T14:38:03.063Z,45.13
2019-02-15T14:40:32.518Z,48.80
2019-02-15T14:43:01.883Z,48.20
2019-02-15T14:45:31.296Z,49.67
2019-02-15T14:48:00.673Z,49.00
2019-02-15T14:50:30.102Z,49.73
2019-02-15T14:52:59.652Z,45.30
2019-02-15T14:55:29.054Z,46.50
2019-02-15T14:57:58.429Z,46.23
2019-02-15T15:00:27.914Z,43.20
2019-02-15T15:02:57.283Z,42.67
2019-02-15T15:05:26.713Z,45.70
2019-02-15T15:07:56.142Z,50.93
2019-02-15T15:10:25.651Z,48.33
2019-02-15T15:12:55.006Z,47.73
2019-02-15T15:15:24.475Z,48.47
2019-02-15T15:18:02.352Z,48.50
2019-02-15T15:20:24.920Z,51.13
2019-02-15T15:22:54.339Z,51.00
2019-02-15T15:25:23.779Z,47.33
2019-02-15T15:27:53.292Z,48.57
2019-02-15T15:30:22.771Z,42.93
2019-02-15T15:32:52.268Z,46.53
2019-02-15T15:35:21.753Z,49.20
2019-02-15T15:37:51.145Z,45.87
2019-02-15T15:40:20.561Z,45.77
2019-02-15T15:42:50.068Z,46.37
2019-02-15T15:45:19.444Z,46.90
2019-02-15T15:47:48.880Z,45.67
2019-02-15T15:50:18.309Z,45.50
2019-02-15T15:52:47.690Z,47.03
2019-02-15T15:55:17.830Z,45.93
2019-02-15T15:57:47.761Z,47.47
2019-02-15T16:00:18.313Z,49.33
2019-02-15T16:02:47.681Z,67.47
2019-02-15T16:05:17.184Z,63.73
2019-02-15T16:07:46.654Z,64.63
2019-02-15T16:10:16.106Z,56.57
2019-02-15T16:12:45.507Z,53.10
2019-02-15T16:15:14.935Z,52.33
2019-02-15T16:17:44.352Z,50.23
2019-02-15T16:20:13.709Z,47.50
2019-02-15T16:22:43.125Z,47.97
2019-02-15T16:25:12.493Z,49.43
2019-02-15T16:27:43.510Z,50.30
2019-02-15T16:30:13.364Z,51.73
2019-02-15T16:32:44.699Z,50.70
2019-02-15T16:35:14.120Z,47.53
2019-02-15T16:37:43.490Z,49.33
2019-02-15T16:40:13.568Z,46.77
2019-02-15T16:42:43.064Z,50.77
2019-02-15T16:45:13.765Z,49.30
2019-02-15T16:47:43.396Z,47.90
2019-02-15T16:50:13.320Z,47.43
2019-02-15T16:52:42.780Z,46.80
2019-02-15T16:55:13.379Z,49.00
2019-02-15T16:57:43.316Z,50.53
2019-02-15T17:00:12.913Z,49.93
2019-02-15T17:02:42.343Z,47.93
2019-02-15T17:05:12.368Z,47.57
2019-02-15T17:07:41.835Z,47.67
2019-02-15T17:10:11.339Z,46.80
2019-02-15T17:12:40.855Z,50.53
2019-02-15T17:15:10.981Z,50.07
2019-02-15T17:17:40.483Z,62.03
2019-02-15T17:20:10.082Z,61.87
2019-02-15T17:22:42.317Z,54.13
2019-02-15T17:25:12.270Z,52.57
2019-02-15T17:27:42.065Z,51.30
2019-02-15T17:30:12.248Z,50.40
2019-02-15T17:32:42.433Z,49.63
2019-02-15T17:35:12.648Z,50.60
2019-02-15T17:37:42.878Z,49.50
2019-02-15T17:40:13.094Z,50.80
2019-02-15T17:42:43.265Z,51.27
2019-02-15T17:45:17.540Z,48.10
2019-02-15T17:47:47.742Z,50.33
2019-02-15T17:50:18.417Z,51.43
2019-02-15T17:52:48.480Z,50.90
2019-02-15T17:55:18.732Z,52.00
2019-02-15T17:57:49.051Z,53.97
2019-02-15T18:00:21.457Z,52.83
2019-02-15T18:02:51.654Z,52.23
2019-02-15T18:05:21.846Z,50.70
2019-02-15T18:07:52.063Z,50.37
2019-02-15T18:10:22.261Z,51.60
2019-02-15T18:12:52.416Z,52.30
2019-02-15T18:15:22.887Z,51.23
2019-02-15T18:17:53.066Z,51.83
2019-02-15T18:20:23.228Z,51.73
2019-02-15T18:22:53.498Z,51.07
2019-02-15T18:25:23.833Z,48.97
2019-02-15T18:27:53.853Z,54.07
2019-02-15T18:30:23.920Z,69.37
2019-02-15T18:32:53.992Z,72.13
2019-02-15T18:35:24.078Z,63.07
2019-02-15T18:37:54.317Z,56.87
2019-02-15T18:40:24.299Z,54.77
2019-02-15T18:42:54.576Z,60.47
2019-02-15T18:45:24.799Z,56.17
2019-02-15T18:47:56.188Z,56.60
2019-02-15T18:50:26.378Z,54.47
2019-02-15T18:52:56.526Z,57.73
2019-02-15T18:55:26.656Z,58.90
2019-02-15T18:57:56.932Z,57.73
2019-02-15T19:00:27.142Z,56.57
2019-02-15T19:02:57.271Z,57.10
2019-02-15T19:05:27.460Z,56.40
2019-02-15T19:07:57.750Z,56.10
2019-02-15T19:10:27.875Z,59.50
2019-02-15T19:12:58.144Z,60.87
2019-02-15T19:15:28.396Z,61.87
2019-02-15T19:17:58.646Z,57.20
2019-02-15T19:20:28.873Z,53.20
2019-02-15T19:22:59.152Z,55.47
2019-02-15T19:25:29.428Z,54.77
2019-02-15T19:28:00.021Z,53.87
2019-02-15T19:30:31.942Z,57.73
2019-02-15T19:33:02.140Z,55.83
2019-02-15T19:35:32.250Z,53.43
2019-02-15T19:38:02.451Z,51.07
2019-02-15T19:40:32.645Z,49.10
2019-02-15T19:43:03.444Z,48.37
2019-02-15T19:45:33.853Z,50.40
2019-02-15T19:48:03.726Z,50.37
2019-02-15T19:50:33.813Z,50.20
2019-02-15T19:53:04.113Z,50.50
2019-02-15T19:55:34.520Z,52.37
2019-02-15T19:58:04.659Z,53.40
2019-02-15T20:00:35.577Z,48.93
2019-02-15T20:03:06.077Z,49.23
2019-02-15T20:05:36.488Z,52.10
2019-02-15T20:08:06.749Z,50.97
2019-02-15T20:10:36.923Z,50.67
2019-02-15T20:13:07.051Z,50.87
2019-02-15T20:15:37.231Z,51.13
2019-02-15T20:18:07.414Z,54.77
2019-02-15T20:20:37.438Z,54.53
2019-02-15T20:23:07.762Z,58.13
2019-02-15T20:25:37.784Z,59.73
2019-02-15T20:28:14.064Z,59.03
2019-02-15T20:30:39.626Z,54.47
2019-02-15T20:33:09.834Z,54.87
2019-02-15T20:35:40.038Z,64.60
2019-02-15T20:38:10.312Z,78.37
2019-02-15T20:40:40.386Z,63.23
2019-02-15T20:43:10.672Z,55.23
2019-02-15T20:45:42.283Z,58.07
2019-02-15T20:48:13.181Z,60.87
2019-02-15T20:50:43.441Z,55.27
2019-02-15T20:53:13.412Z,53.20
2019-02-15T20:55:43.395Z,61.03
2019-02-15T20:58:13.579Z,59.10
2019-02-15T21:00:43.744Z,64.17
2019-02-15T21:03:13.804Z,72.00
2019-02-15T21:05:43.892Z,72.90
2019-02-15T21:08:13.930Z,74.23
2019-02-15T21:10:43.971Z,61.40
2019-02-15T21:13:20.141Z,56.90
2019-02-15T21:15:45.779Z,53.90
2019-02-15T21:18:16.005Z,48.80
2019-02-15T21:20:46.087Z,46.17
2019-02-15T21:23:16.135Z,45.07
2019-02-15T21:25:46.085Z,45.30
2019-02-15T21:28:16.291Z,44.37
2019-02-15T21:30:47.973Z,46.27
2019-02-15T21:33:17.878Z,45.80
2019-02-15T21:35:47.508Z,44.03
2019-02-15T21:38:17.284Z,43.30
2019-02-15T21:40:46.980Z,53.50
2019-02-15T21:43:16.636Z,51.07
2019-02-15T21:45:46.159Z,50.00
2019-02-15T21:48:15.741Z,51.80
2019-02-15T21:50:45.139Z,53.00
2019-02-15T21:53:14.552Z,51.20
2019-02-15T21:55:44.047Z,50.57
2019-02-15T21:58:13.417Z,45.73
2019-02-15T22:00:42.888Z,46.17
2019-02-15T22:03:12.428Z,47.73
2019-02-15T22:05:41.874Z,50.30
2019-02-15T22:08:11.267Z,48.87
2019-02-15T22:10:40.788Z,47.67
2019-02-15T22:13:10.219Z,48.67
2019-02-15T22:15:39.576Z,53.20
2019-02-15T22:18:09.040Z,48.67
2019-02-15T22:20:38.494Z,48.50
2019-02-15T22:23:07.997Z,48.80
2019-02-15T22:25:37.480Z,46.60
2019-02-15T22:28:06.858Z,46.57
2019-02-15T22:30:36.300Z,46.13
2019-02-15T22:33:05.798Z,42.17
2019-02-15T22:35:35.305Z,42.33
2019-02-15T22:38:04.676Z,42.63
2019-02-15T22:40:56.805Z,42.93
2019-02-15T22:43:27.104Z,41.20
2019-02-15T22:45:56.578Z,41.83
2019-02-15T22:48:26.003Z,44.27
2019-02-15T22:50:55.378Z,44.23
2019-02-15T22:53:24.861Z,56.17
2019-02-15T22:55:54.314Z,56.73
2019-02-15T22:58:23.800Z,50.20
2019-02-15T23:01:17.574Z,43.33
2019-02-15T23:03:47.290Z,44.67
2019-02-15T23:06:16.999Z,41.67
2019-02-15T23:08:46.437Z,37.60
2019-02-15T23:11:15.848Z,38.40
2019-02-15T23:13:45.283Z,37.47
2019-02-15T23:16:14.703Z,37.67
2019-02-15T23:18:44.112Z,37.13
2019-02-15T23:21:13.626Z,38.50
2019-02-15T23:23:43.104Z,37.30
2019-02-15T23:26:12.460Z,40.77
2019-02-15T23:28:41.848Z,46.47
2019-02-15T23:31:11.206Z,49.33
2019-02-15T23:33:40.601Z,45.63
2019-02-15T23:36:10.011Z,43.50
2019-02-15T23:38:39.397Z,47.43
2019-02-15T23:41:08.775Z,46.67
2019-02-15T23:43:38.335Z,44.30
2019-02-15T23:46:07.790Z,41.27
2019-02-15T23:48:37.287Z,39.43
2019-02-15T23:51:06.744Z,38.77
2019-02-15T23:53:36.192Z,39.73
2019-02-15T23:56:06.027Z,40.13
2019-02-15T23:58:35.445Z,40.90
